Time;durP1;ratioP1;P1;durP2;ratioP2;P2;SDS_P1;SDS_P2;PMS_P1;PMS_P2;Temp;Humidity;BMP_temperature;BMP_pressure;BME280_temperature;BME280_humidity;BME280_pressure;Samples;Min_cycle;Max_cycle;Signal;HPM_P1;HPM_P2
2023/10/24 00:02:04;;;;;;;6.45;5.85;;;12.40;99.90;;;;;;5052673;28;20185;-64
2023/10/24 00:04:30;;;;;;;6.70;5.97;;;12.40;99.90;;;;;;5053753;28;20183;-64
2023/10/24 00:06:56;;;;;;;6.10;5.00;;;12.40;99.90;;;;;;5053635;28;20183;-64
2023/10/24 00:09:21;;;;;;;7.20;5.28;;;12.40;99.90;;;;;;5053645;28;20178;-64
2023/10/24 00:11:47;;;;;;;6.63;5.63;;;12.40;99.90;;;;;;5053579;28;20178;-64
2023/10/24 00:14:13;;;;;;;7.22;5.82;;;12.40;99.90;;;;;;5053723;28;20298;-65
2023/10/24 00:16:38;;;;;;;6.80;5.75;;;12.40;99.90;;;;;;5053705;28;20254;-64
2023/10/24 00:19:04;;;;;;;7.13;6.15;;;12.40;99.90;;;;;;5053611;28;20207;-64
2023/10/24 00:21:29;;;;;;;6.47;5.68;;;12.40;99.90;;;;;;5053425;28;20638;-64
2023/10/24 00:23:55;;;;;;;6.10;5.57;;;12.40;99.90;;;;;;5053421;28;20185;-64
2023/10/24 00:26:21;;;;;;;7.22;6.28;;;12.40;99.90;;;;;;5053347;28;20176;-64
2023/10/24 00:28:46;;;;;;;6.20;5.60;;;12.40;99.90;;;;;;5053362;28;20182;-64
2023/10/24 00:31:12;;;;;;;6.90;6.22;;;12.40;99.90;;;;;;5053312;28;20182;-64
2023/10/24 00:33:38;;;;;;;7.53;6.72;;;12.30;99.90;;;;;;5053341;28;20214;-64
2023/10/24 00:36:03;;;;;;;7.47;6.53;;;12.30;99.90;;;;;;5053313;28;20651;-64
2023/10/24 00:38:29;;;;;;;7.18;6.47;;;12.30;99.90;;;;;;5052056;28;20199;-64
2023/10/24 00:40:55;;;;;;;8.82;6.70;;;12.40;99.90;;;;;;5053111;28;20175;-64
2023/10/24 00:43:20;;;;;;;8.00;7.22;;;12.30;99.90;;;;;;5053360;28;20178;-64
2023/10/24 00:45:46;;;;;;;8.45;7.65;;;12.30;99.90;;;;;;5053316;28;20230;-64
2023/10/24 00:48:12;;;;;;;8.32;7.10;;;12.30;99.90;;;;;;5052877;28;20198;-64
2023/10/24 00:50:38;;;;;;;7.47;6.70;;;12.30;99.90;;;;;;5053160;28;20180;-64
2023/10/24 00:53:04;;;;;;;7.70;6.95;;;12.20;99.90;;;;;;5053028;28;20230;-64
2023/10/24 00:55:30;;;;;;;7.85;7.05;;;12.20;99.90;;;;;;5053011;28;20573;-63
2023/10/24 00:57:58;;;;;;;7.63;6.93;;;12.20;99.90;;;;;;5053272;28;20179;-64
2023/10/24 01:00:25;;;;;;;8.25;7.47;;;12.30;99.90;;;;;;5053232;28;20168;-64
2023/10/24 01:02:52;;;;;;;8.40;7.60;;;12.20;99.90;;;;;;5053135;28;20265;-65
2023/10/24 01:05:17;;;;;;;8.80;7.63;;;12.20;99.90;;;;;;5052991;28;20171;-65
2023/10/24 01:07:45;;;;;;;8.30;7.55;;;12.10;99.90;;;;;;5052947;28;20194;-63
2023/10/24 01:10:12;;;;;;;8.70;7.82;;;12.20;99.90;;;;;;5055626;28;20187;-65
2023/10/24 01:12:38;;;;;;;9.20;8.30;;;12.20;99.90;;;;;;5057030;28;20203;-64
2023/10/24 01:15:05;;;;;;;9.40;8.23;;;12.20;99.90;;;;;;5057124;28;20186;-64
2023/10/24 01:17:31;;;;;;;8.88;7.82;;;12.20;99.90;;;;;;5056928;28;20160;-65
2023/10/24 01:19:57;;;;;;;10.13;9.13;;;12.20;99.90;;;;;;5056612;28;20659;-64
2023/10/24 01:22:22;;;;;;;9.65;8.77;;;12.20;99.90;;;;;;5055676;28;20172;-66
2023/10/24 01:24:49;;;;;;;9.20;8.27;;;12.20;99.90;;;;;;5056776;28;20171;-66
2023/10/24 01:27:15;;;;;;;9.93;8.88;;;12.20;99.90;;;;;;5056912;28;20179;-66
2023/10/24 01:29:41;;;;;;;9.27;8.48;;;12.20;99.90;;;;;;5055549;28;20194;-66
2023/10/24 01:32:06;;;;;;;9.65;8.75;;;12.10;99.90;;;;;;5056601;28;20214;-66
2023/10/24 01:34:32;;;;;;;8.70;7.90;;;12.10;99.90;;;;;;5056575;28;20213;-65
2023/10/24 01:36:58;;;;;;;8.75;7.95;;;12.10;99.90;;;;;;5056495;28;20594;-65
2023/10/24 01:39:24;;;;;;;9.05;8.30;;;12.10;99.90;;;;;;5056722;28;20179;-66
2023/10/24 01:41:49;;;;;;;8.93;8.23;;;12.10;99.90;;;;;;5056919;28;20176;-65
2023/10/24 01:44:15;;;;;;;8.82;8.02;;;12.10;99.90;;;;;;5056554;28;20190;-63
2023/10/24 01:46:41;;;;;;;10.02;9.13;;;12.10;99.90;;;;;;5056459;28;20535;-65
2023/10/24 01:49:06;;;;;;;9.32;8.27;;;12.10;99.90;;;;;;5056295;28;20175;-65
2023/10/24 01:51:32;;;;;;;8.52;7.72;;;12.10;99.90;;;;;;5056230;28;20266;-64
2023/10/24 01:53:57;;;;;;;9.23;8.32;;;12.00;99.90;;;;;;5056399;28;20214;-65
2023/10/24 01:56:23;;;;;;;8.90;8.20;;;12.00;99.90;;;;;;5056167;28;20180;-65
2023/10/24 01:58:49;;;;;;;8.20;7.40;;;11.90;99.90;;;;;;5056255;28;20214;-65
2023/10/24 02:01:14;;;;;;;11.70;7.75;;;12.00;99.90;;;;;;5056208;28;20171;-65
2023/10/24 02:03:40;;;;;;;8.10;7.40;;;12.00;99.90;;;;;;5056086;28;20179;-65
2023/10/24 02:06:06;;;;;;;8.23;7.53;;;12.10;99.90;;;;;;5056040;28;20175;-66
2023/10/24 02:08:31;;;;;;;8.30;7.57;;;12.00;99.90;;;;;;5055853;28;20191;-65
2023/10/24 02:10:57;;;;;;;8.23;7.43;;;12.00;99.90;;;;;;5056073;28;20544;-65
2023/10/24 02:13:22;;;;;;;8.13;7.38;;;11.90;99.90;;;;;;5055933;28;20222;-65
2023/10/24 02:15:48;;;;;;;8.23;7.45;;;11.90;99.90;;;;;;5055945;28;20205;-64
2023/10/24 02:18:14;;;;;;;7.82;7.13;;;11.90;99.90;;;;;;5055859;28;20213;-65
2023/10/24 02:20:39;;;;;;;6.70;6.18;;;11.90;99.90;;;;;;5054909;28;20637;-65
2023/10/24 02:23:05;;;;;;;7.03;6.35;;;11.90;99.90;;;;;;5055545;28;20175;-65
2023/10/24 02:25:36;;;;;;;7.00;6.40;;;11.90;99.90;;;;;;5055828;28;20195;-63
2023/10/24 02:28:02;;;;;;;7.30;6.68;;;12.00;99.90;;;;;;5055780;28;20164;-65
2023/10/24 02:30:28;;;;;;;7.70;7.10;;;12.00;99.90;;;;;;5055621;28;20229;-65
2023/10/24 02:33:00;;;;;;;7.38;6.78;;;12.00;99.90;;;;;;5055564;28;20210;-65
2023/10/24 02:35:26;;;;;;;7.18;6.38;;;11.90;99.90;;;;;;5055414;28;20187;-64
2023/10/24 02:37:51;;;;;;;6.97;6.28;;;11.90;99.90;;;;;;5055651;28;20172;-65
2023/10/24 02:40:18;;;;;;;6.80;6.25;;;12.00;99.90;;;;;;5054264;28;20182;-65
2023/10/24 02:42:43;;;;;;;6.80;6.07;;;12.00;99.90;;;;;;5055311;28;20644;-64
2023/10/24 02:45:09;;;;;;;9.43;6.00;;;12.00;99.90;;;;;;5055351;28;20191;-65
2023/10/24 02:47:35;;;;;;;6.43;5.80;;;12.00;99.90;;;;;;5055252;28;20210;-65
2023/10/24 02:50:00;;;;;;;6.70;6.20;;;12.00;99.90;;;;;;5055195;28;20187;-66
2023/10/24 02:52:28;;;;;;;7.07;6.38;;;11.90;99.90;;;;;;5055296;28;20176;-66
2023/10/24 02:54:54;;;;;;;6.68;6.07;;;11.80;99.90;;;;;;5055005;28;20541;-66
2023/10/24 02:57:20;;;;;;;6.68;5.97;;;11.90;99.90;;;;;;5055082;28;20175;-66
2023/10/24 02:59:45;;;;;;;6.07;5.60;;;11.90;99.90;;;;;;5054997;28;20254;-66
2023/10/24 03:02:11;;;;;;;6.20;5.70;;;11.90;99.90;;;;;;5055044;28;20259;-65
2023/10/24 03:04:36;;;;;;;8.55;5.60;;;11.90;99.90;;;;;;5054901;28;20266;-65
2023/10/24 03:07:03;;;;;;;6.55;5.85;;;11.90;99.90;;;;;;5055074;28;20258;-65
2023/10/24 03:09:28;;;;;;;6.30;5.70;;;11.90;99.90;;;;;;5055046;28;20179;-65
2023/10/24 03:11:54;;;;;;;6.10;5.60;;;11.80;99.90;;;;;;5054734;28;20187;-65
2023/10/24 03:14:20;;;;;;;7.13;5.47;;;11.80;99.90;;;;;;5054744;28;20281;-64
2023/10/24 03:16:45;;;;;;;6.30;5.50;;;11.80;99.90;;;;;;5054638;28;20175;-65
2023/10/24 03:19:11;;;;;;;6.50;5.90;;;11.80;99.90;;;;;;5054605;28;20210;-65
2023/10/24 03:21:36;;;;;;;5.82;5.32;;;11.80;99.90;;;;;;5054799;28;20368;-66
2023/10/24 03:24:02;;;;;;;6.50;5.90;;;11.90;99.90;;;;;;5054745;28;20609;-65
2023/10/24 03:26:28;;;;;;;7.63;6.90;;;12.00;99.90;;;;;;5054558;28;20179;-65
2023/10/24 03:28:54;;;;;;;7.32;6.63;;;12.00;99.90;;;;;;5054489;28;20179;-65
2023/10/24 03:31:19;;;;;;;7.35;6.65;;;11.90;99.90;;;;;;5054722;28;20193;-64
2023/10/24 03:33:45;;;;;;;7.40;6.70;;;11.90;99.90;;;;;;5053981;28;20294;-64
2023/10/24 03:36:14;;;;;;;7.45;6.68;;;11.80;99.90;;;;;;5054539;28;20175;-64
2023/10/24 03:38:40;;;;;;;7.30;6.70;;;11.80;99.90;;;;;;5054742;28;20168;-65
2023/10/24 03:41:07;;;;;;;8.27;7.05;;;11.90;99.90;;;;;;5054520;28;20176;-65
2023/10/24 03:43:34;;;;;;;8.23;7.28;;;11.80;99.90;;;;;;5054331;28;20171;-64
2023/10/24 03:46:07;;;;;;;8.23;7.50;;;11.90;99.90;;;;;;5052861;28;20179;-65
2023/10/24 03:48:33;;;;;;;9.23;7.35;;;11.90;99.90;;;;;;5054014;28;20274;-64
2023/10/24 03:51:00;;;;;;;7.93;7.22;;;11.90;99.90;;;;;;5054202;28;20175;-65
2023/10/24 03:53:26;;;;;;;7.88;7.28;;;11.90;99.90;;;;;;5054006;28;20218;-65
2023/10/24 03:55:57;;;;;;;8.88;7.90;;;11.90;99.90;;;;;;5054060;28;20172;-65
2023/10/24 03:58:22;;;;;;;8.27;7.43;;;11.90;99.90;;;;;;5053860;28;20641;-65
2023/10/24 04:00:48;;;;;;;8.10;7.40;;;11.80;99.90;;;;;;5054123;28;20175;-64
2023/10/24 04:03:14;;;;;;;8.32;7.60;;;11.90;99.90;;;;;;5053702;28;20187;-65
2023/10/24 04:05:40;;;;;;;7.93;7.22;;;11.90;99.90;;;;;;5053963;28;20199;-65
2023/10/24 04:08:05;;;;;;;7.47;6.88;;;11.90;99.90;;;;;;5053833;28;20183;-65
2023/10/24 04:10:34;;;;;;;7.70;7.00;;;11.90;99.90;;;;;;5053787;28;20229;-63
2023/10/24 04:12:59;;;;;;;7.80;7.20;;;11.90;99.90;;;;;;5053592;28;20225;-66
2023/10/24 04:15:25;;;;;;;8.60;7.90;;;11.90;99.90;;;;;;5053644;28;20167;-65
2023/10/24 04:17:51;;;;;;;8.93;8.10;;;11.90;99.90;;;;;;5052534;28;20656;-64
2023/10/24 04:20:17;;;;;;;9.30;8.50;;;11.90;99.90;;;;;;5053660;28;20679;-65
2023/10/24 04:22:42;;;;;;;8.20;7.40;;;11.90;99.90;;;;;;5053224;28;20206;-63
2023/10/24 04:25:08;;;;;;;10.07;9.13;;;11.90;99.90;;;;;;5053376;28;20172;-65
2023/10/24 04:27:34;;;;;;;9.25;8.45;;;11.90;99.90;;;;;;5053120;28;20176;-65
2023/10/24 04:30:00;;;;;;;9.88;8.55;;;11.90;99.90;;;;;;5053424;28;20203;-65
2023/10/24 04:32:26;;;;;;;9.35;8.27;;;11.90;99.90;;;;;;5053144;28;20208;-64
2023/10/24 04:34:51;;;;;;;8.63;7.93;;;11.80;99.90;;;;;;5052499;28;20633;-64
2023/10/24 04:37:18;;;;;;;9.10;8.30;;;11.80;99.90;;;;;;5053275;28;20250;-65
2023/10/24 04:39:44;;;;;;;8.75;8.05;;;11.80;99.90;;;;;;5053341;28;20178;-64
2023/10/24 04:42:10;;;;;;;8.73;7.93;;;11.80;99.90;;;;;;5053311;28;20320;-65
2023/10/24 04:44:36;;;;;;;9.07;8.30;;;11.70;99.90;;;;;;5052783;28;20266;-65
2023/10/24 04:47:01;;;;;;;9.43;8.63;;;11.60;99.90;;;;;;5053406;28;20182;-65
2023/10/24 04:49:27;;;;;;;9.40;8.50;;;11.60;99.90;;;;;;5053105;28;20179;-64
2023/10/24 04:51:53;;;;;;;9.23;8.43;;;11.70;99.90;;;;;;5053270;28;20179;-65
2023/10/24 04:54:18;;;;;;;10.00;9.10;;;11.70;99.90;;;;;;5053090;28;20798;-62
2023/10/24 04:56:44;;;;;;;10.15;9.30;;;11.70;99.90;;;;;;5053150;28;20194;-65
2023/10/24 04:59:10;;;;;;;10.38;9.10;;;11.80;99.90;;;;;;5053073;28;20690;-67
2023/10/24 05:01:38;;;;;;;10.15;9.18;;;11.80;99.90;;;;;;5052947;28;20172;-67
2023/10/24 05:04:07;;;;;;;10.38;9.38;;;11.90;99.90;;;;;;5053120;28;20187;-67
2023/10/24 05:06:33;;;;;;;9.98;9.07;;;11.90;99.90;;;;;;5053167;28;20172;-67
2023/10/24 05:08:59;;;;;;;9.98;8.98;;;11.80;99.90;;;;;;5053077;28;20182;-67
2023/10/24 05:11:25;;;;;;;10.43;8.48;;;11.80;99.90;;;;;;5053004;28;20175;-67
2023/10/24 05:13:51;;;;;;;9.45;8.65;;;11.90;99.90;;;;;;5052902;28;20328;-65
2023/10/24 05:16:17;;;;;;;9.13;8.23;;;11.80;99.90;;;;;;5052837;28;20528;-67
2023/10/24 05:18:42;;;;;;;9.35;8.48;;;11.80;99.90;;;;;;5053101;28;20179;-64
2023/10/24 05:21:08;;;;;;;9.07;8.18;;;11.80;99.90;;;;;;5052795;28;20720;-67
2023/10/24 05:23:34;;;;;;;8.88;8.07;;;11.70;99.90;;;;;;5053068;28;20179;-67
2023/10/24 05:25:59;;;;;;;9.30;8.50;;;11.80;99.90;;;;;;5052886;28;20209;-67
2023/10/24 05:28:25;;;;;;;9.65;8.77;;;11.70;99.90;;;;;;5052818;28;20275;-67
2023/10/24 05:30:51;;;;;;;9.63;8.68;;;11.70;99.90;;;;;;5052616;28;20171;-67
2023/10/24 05:33:16;;;;;;;10.73;9.70;;;11.70;99.90;;;;;;5052855;28;20221;-67
2023/10/24 05:35:47;;;;;;;10.43;9.38;;;11.80;99.90;;;;;;5052871;28;20579;-67
2023/10/24 05:38:13;;;;;;;11.15;9.50;;;11.80;99.90;;;;;;5052752;28;20194;-67
2023/10/24 05:40:39;;;;;;;10.35;9.35;;;11.70;99.90;;;;;;5052739;28;20659;-67
2023/10/24 05:43:06;;;;;;;10.25;9.30;;;11.70;99.90;;;;;;5052574;28;20179;-67
2023/10/24 05:45:32;;;;;;;10.88;9.43;;;11.70;99.90;;;;;;5052711;28;20202;-66
2023/10/24 05:47:58;;;;;;;10.38;9.38;;;11.80;99.90;;;;;;5052782;28;20167;-66
2023/10/24 05:50:24;;;;;;;12.30;9.55;;;11.70;99.90;;;;;;5052761;28;20178;-67
2023/10/24 05:52:50;;;;;;;11.00;9.73;;;11.70;99.90;;;;;;5052585;28;20207;-67
2023/10/24 05:55:15;;;;;;;12.23;10.63;;;11.60;99.90;;;;;;5052930;28;20697;-67
2023/10/24 05:57:41;;;;;;;11.10;9.98;;;11.70;99.90;;;;;;5056154;28;20171;-67
2023/10/24 06:00:08;;;;;;;11.13;9.95;;;11.60;99.90;;;;;;5056094;28;20178;-66
2023/10/24 06:02:33;;;;;;;10.98;9.88;;;11.60;99.90;;;;;;5056282;28;20179;-67
2023/10/24 06:04:59;;;;;;;11.00;9.90;;;11.50;99.90;;;;;;5056216;28;20174;-67
2023/10/24 06:07:25;;;;;;;10.57;9.48;;;11.50;99.90;;;;;;5056102;28;20629;-66
2023/10/24 06:09:50;;;;;;;10.30;9.30;;;11.30;99.90;;;;;;5055936;28;20556;-67
2023/10/24 06:12:16;;;;;;;10.60;9.57;;;11.30;99.90;;;;;;5055944;28;20179;-66
2023/10/24 06:14:42;;;;;;;10.45;9.25;;;11.40;99.90;;;;;;5055768;28;20277;-67
2023/10/24 06:17:07;;;;;;;10.20;9.20;;;11.30;99.90;;;;;;5056019;28;20245;-66
2023/10/24 06:19:39;;;;;;;11.88;10.30;;;11.30;99.90;;;;;;5055838;28;20533;-67
2023/10/24 06:22:05;;;;;;;9.23;7.90;;;11.20;99.90;;;;;;5055764;28;20238;-67
2023/10/24 06:24:31;;;;;;;10.25;9.25;;;11.20;99.90;;;;;;5055728;28;20624;-66
2023/10/24 06:26:56;;;;;;;10.32;9.25;;;11.30;99.90;;;;;;5055654;28;20183;-67
2023/10/24 06:29:22;;;;;;;10.30;9.25;;;11.30;99.90;;;;;;5055645;28;20178;-67
2023/10/24 06:31:48;;;;;;;10.43;9.32;;;11.30;99.90;;;;;;5055776;28;20167;-67
2023/10/24 06:34:13;;;;;;;10.57;9.50;;;11.30;99.90;;;;;;5055566;28;20219;-67
2023/10/24 06:36:39;;;;;;;10.30;9.32;;;11.30;99.90;;;;;;5055504;28;20513;-67
2023/10/24 06:39:05;;;;;;;10.80;9.35;;;11.40;99.90;;;;;;5055445;28;20176;-67
2023/10/24 06:41:31;;;;;;;10.25;8.68;;;11.30;99.90;;;;;;5055266;28;20176;-66
2023/10/24 06:43:57;;;;;;;10.80;9.70;;;11.30;99.90;;;;;;5055483;28;20188;-67
2023/10/24 06:46:23;;;;;;;12.52;10.25;;;11.30;99.90;;;;;;5055682;28;20204;-66
2023/10/24 06:48:50;;;;;;;10.73;9.63;;;11.30;99.90;;;;;;5055378;28;20262;-67
2023/10/24 06:51:16;;;;;;;11.63;9.68;;;11.30;99.90;;;;;;5055208;28;20203;-67
2023/10/24 06:53:42;;;;;;;10.32;9.32;;;11.20;99.90;;;;;;5055156;28;20227;-67
2023/10/24 06:56:08;;;;;;;10.85;9.13;;;11.30;99.90;;;;;;5055102;28;20171;-67
2023/10/24 06:58:33;;;;;;;13.68;10.23;;;11.40;99.90;;;;;;5055061;28;20267;-68
2023/10/24 07:00:59;;;;;;;11.30;9.70;;;11.40;99.90;;;;;;5055199;28;20171;-66
2023/10/24 07:03:25;;;;;;;13.75;10.55;;;11.50;99.90;;;;;;5055148;28;20179;-67
2023/10/24 07:05:54;;;;;;;11.38;9.65;;;11.50;99.90;;;;;;5055014;28;20544;-67
2023/10/24 07:08:21;;;;;;;12.02;10.30;;;11.60;99.90;;;;;;5054327;28;20262;-67
2023/10/24 07:10:47;;;;;;;11.23;10.07;;;11.60;99.90;;;;;;5054717;28;20585;-67
2023/10/24 07:13:13;;;;;;;11.50;10.00;;;11.50;99.90;;;;;;5054965;28;20282;-67
2023/10/24 07:15:41;;;;;;;11.35;10.25;;;11.60;99.90;;;;;;5054938;28;20266;-67
2023/10/24 07:18:07;;;;;;;13.18;10.35;;;11.70;99.90;;;;;;5054759;28;20179;-67
2023/10/24 07:20:36;;;;;;;11.50;10.30;;;11.80;99.90;;;;;;5054685;28;20556;-67
2023/10/24 07:23:03;;;;;;;12.20;10.90;;;11.80;99.90;;;;;;5054639;28;20176;-67
2023/10/24 07:25:29;;;;;;;13.25;11.85;;;11.80;99.90;;;;;;5054507;28;20226;-68
2023/10/24 07:27:56;;;;;;;12.50;11.30;;;11.80;99.90;;;;;;5054555;28;20176;-66
2023/10/24 07:30:22;;;;;;;12.90;11.70;;;11.90;99.90;;;;;;5054580;28;20183;-66
2023/10/24 07:32:48;;;;;;;12.10;10.93;;;11.90;99.90;;;;;;5054487;28;20211;-67
2023/10/24 07:35:14;;;;;;;14.38;11.88;;;12.00;99.90;;;;;;5054403;28;20370;-67
2023/10/24 07:37:39;;;;;;;13.10;11.90;;;12.10;99.90;;;;;;5054261;28;20182;-67
2023/10/24 07:40:05;;;;;;;12.60;11.50;;;12.20;99.90;;;;;;5054271;28;20175;-67
2023/10/24 07:42:32;;;;;;;13.20;11.38;;;12.20;99.90;;;;;;5054398;28;20176;-67
2023/10/24 07:44:58;;;;;;;13.82;11.13;;;12.20;99.90;;;;;;5054332;28;20171;-67
2023/10/24 07:47:26;;;;;;;12.60;11.38;;;12.30;99.90;;;;;;5054255;28;20183;-67
2023/10/24 07:49:51;;;;;;;11.95;10.68;;;12.30;99.90;;;;;;5054127;28;20187;-67
2023/10/24 07:52:18;;;;;;;12.02;10.68;;;12.30;99.90;;;;;;5054067;28;20709;-67
2023/10/24 07:54:43;;;;;;;11.75;10.63;;;12.30;99.90;;;;;;5053827;28;20215;-66
2023/10/24 07:57:09;;;;;;;11.80;10.57;;;12.30;99.90;;;;;;5054075;28;20186;-67
2023/10/24 07:59:35;;;;;;;11.23;10.13;;;12.40;99.90;;;;;;5053013;28;20536;-67
2023/10/24 08:02:01;;;;;;;10.65;9.65;;;12.40;99.90;;;;;;5053939;28;20254;-67
2023/10/24 08:04:26;;;;;;;10.80;9.75;;;12.30;99.90;;;;;;5053872;28;20649;-67
2023/10/24 08:06:52;;;;;;;10.48;9.48;;;12.30;99.90;;;;;;5053846;28;20629;-67
2023/10/24 08:09:18;;;;;;;10.77;9.70;;;12.30;99.90;;;;;;5052448;28;20252;-65
2023/10/24 08:11:44;;;;;;;10.02;9.10;;;12.40;99.90;;;;;;5053827;28;20259;-67
2023/10/24 08:14:09;;;;;;;9.68;8.68;;;12.40;99.90;;;;;;5053541;28;20211;-67
2023/10/24 08:16:35;;;;;;;10.13;8.82;;;12.40;99.90;;;;;;5052475;28;20179;-67
2023/10/24 08:19:02;;;;;;;10.63;9.68;;;12.40;99.90;;;;;;5052636;28;20176;-67
2023/10/24 08:21:27;;;;;;;10.40;9.10;;;12.40;99.90;;;;;;5053305;28;20234;-68
2023/10/24 08:23:54;;;;;;;9.80;8.88;;;12.40;99.90;;;;;;5053383;28;20184;-67
2023/10/24 08:26:20;;;;;;;9.88;8.90;;;12.40;99.90;;;;;;5053610;28;20198;-67
2023/10/24 08:28:46;;;;;;;9.15;8.40;;;12.40;99.90;;;;;;5053561;28;20640;-68
2023/10/24 08:31:12;;;;;;;10.30;9.25;;;12.50;99.90;;;;;;5053291;28;20696;-68
2023/10/24 08:33:38;;;;;;;9.27;8.38;;;12.40;99.90;;;;;;5053244;28;20210;-67
2023/10/24 08:36:04;;;;;;;9.77;8.88;;;12.50;99.90;;;;;;5053367;28;20633;-67
2023/10/24 08:38:29;;;;;;;9.07;8.20;;;12.40;99.90;;;;;;5053318;28;20179;-67
2023/10/24 08:40:55;;;;;;;9.77;8.73;;;12.40;99.90;;;;;;5052245;28;20179;-67
2023/10/24 08:43:22;;;;;;;9.25;8.35;;;12.40;99.90;;;;;;5053446;28;20175;-67
2023/10/24 08:45:51;;;;;;;9.00;8.10;;;12.40;99.90;;;;;;5053304;28;20191;-67
2023/10/24 08:48:18;;;;;;;9.40;8.50;;;12.40;99.90;;;;;;5053258;28;20171;-67
2023/10/24 08:50:44;;;;;;;9.80;8.80;;;12.40;99.90;;;;;;5053155;28;20270;-66
2023/10/24 08:53:13;;;;;;;9.30;8.50;;;12.40;99.90;;;;;;5052956;28;20207;-67
2023/10/24 08:55:44;;;;;;;9.38;8.13;;;12.40;99.90;;;;;;5053259;28;20182;-67
2023/10/24 08:58:10;;;;;;;8.95;8.18;;;12.40;99.90;;;;;;5053127;28;20171;-67
2023/10/24 09:00:37;;;;;;;9.93;8.82;;;12.40;99.90;;;;;;5053147;28;20252;-67
2023/10/24 09:03:03;;;;;;;9.35;8.45;;;12.40;99.90;;;;;;5053037;28;20194;-68
2023/10/24 09:05:30;;;;;;;9.80;8.80;;;12.40;99.90;;;;;;5052888;28;20182;-67
2023/10/24 09:07:56;;;;;;;9.77;8.88;;;12.50;99.90;;;;;;5052884;28;20163;-67
2023/10/24 09:10:22;;;;;;;10.18;9.18;;;12.40;99.90;;;;;;5053159;28;20177;-67
2023/10/24 09:12:53;;;;;;;12.20;9.10;;;12.30;99.90;;;;;;5053033;28;20194;-67
2023/10/24 09:15:18;;;;;;;10.93;9.65;;;12.40;99.90;;;;;;5052979;28;20178;-66
2023/10/24 09:17:44;;;;;;;10.82;9.73;;;12.40;99.90;;;;;;5052944;28;20636;-66
2023/10/24 09:20:10;;;;;;;10.23;9.23;;;12.30;99.90;;;;;;5052606;28;20223;-66
2023/10/24 09:22:35;;;;;;;11.90;9.80;;;12.30;99.90;;;;;;5053081;28;20274;-67
2023/10/24 09:25:03;;;;;;;11.35;9.25;;;12.30;99.90;;;;;;5052959;28;20186;-67
2023/10/24 09:27:28;;;;;;;10.02;8.32;;;12.40;99.90;;;;;;5052890;28;20195;-67
2023/10/24 09:29:54;;;;;;;8.90;8.02;;;12.30;99.90;;;;;;5052871;28;20225;-67
2023/10/24 09:32:20;;;;;;;8.63;7.82;;;12.30;99.90;;;;;;5056611;28;20621;-66
2023/10/24 09:34:47;;;;;;;8.95;8.05;;;12.40;99.90;;;;;;5056473;28;20246;-66
2023/10/24 09:37:13;;;;;;;9.95;8.60;;;12.50;99.90;;;;;;5056757;28;20182;-66
2023/10/24 09:39:59;;;;;;;9.55;8.75;;;12.40;99.90;;;;;;5056731;28;20237;-66
2023/10/24 09:42:29;;;;;;;9.68;8.68;;;12.40;99.90;;;;;;5056540;28;20183;-66
2023/10/24 09:45:00;;;;;;;9.25;8.10;;;12.30;99.90;;;;;;5056412;28;20187;-65
2023/10/24 09:47:27;;;;;;;8.02;7.25;;;12.40;99.90;;;;;;5056444;28;20179;-66
2023/10/24 09:49:54;;;;;;;8.57;7.70;;;12.40;99.90;;;;;;5056554;28;20171;-66
2023/10/24 09:52:24;;;;;;;9.27;7.78;;;12.40;99.90;;;;;;5056440;28;20175;-67
2023/10/24 09:54:50;;;;;;;7.10;6.50;;;12.30;99.90;;;;;;5056247;28;20578;-66
2023/10/24 09:57:21;;;;;;;6.55;5.95;;;12.30;99.90;;;;;;5056197;28;20185;-66
2023/10/24 09:59:49;;;;;;;7.60;5.95;;;12.30;99.90;;;;;;5056113;28;20179;-66
2023/10/24 10:02:16;;;;;;;6.18;5.55;;;12.20;99.90;;;;;;5056283;28;20180;-66
2023/10/24 10:04:42;;;;;;;6.35;5.68;;;12.20;99.90;;;;;;5056216;28;20656;-67
2023/10/24 10:07:11;;;;;;;5.47;5.00;;;12.30;99.90;;;;;;5056102;28;20168;-66
2023/10/24 10:09:42;;;;;;;5.95;5.00;;;12.20;99.90;;;;;;5056052;28;20182;-66
2023/10/24 10:12:12;;;;;;;5.88;4.40;;;12.30;99.90;;;;;;5056005;28;20510;-66
2023/10/24 10:15:06;;;;;;;4.15;3.85;;;12.20;99.90;;;;;;5055840;28;20261;-66
2023/10/24 10:17:57;;;;;;;8.45;5.00;;;12.20;99.90;;;;;;5055985;28;20171;-66
2023/10/24 10:20:31;;;;;;;6.82;3.75;;;12.10;99.90;;;;;;5055499;28;20246;-66
2023/10/24 10:23:27;;;;;;;3.70;3.30;;;12.10;99.90;;;;;;5055649;28;20170;-66
2023/10/24 10:26:20;;;;;;;4.03;3.35;;;12.10;99.90;;;;;;5055883;28;20262;-66
2023/10/24 10:28:57;;;;;;;4.65;3.30;;;12.20;99.90;;;;;;5055714;28;20501;-66
2023/10/24 10:31:54;;;;;;;4.05;3.15;;;12.20;99.90;;;;;;5055868;28;20182;-67
2023/10/24 10:34:31;;;;;;;4.05;3.50;;;12.20;99.90;;;;;;5055597;28;20218;-66
2023/10/24 10:36:57;;;;;;;4.18;3.65;;;12.20;99.90;;;;;;5055660;28;20167;-67
2023/10/24 10:39:23;;;;;;;5.00;3.15;;;12.30;99.90;;;;;;5055302;28;20175;-67
2023/10/24 10:41:49;;;;;;;4.88;3.40;;;12.30;99.90;;;;;;5054625;28;20265;-67
2023/10/24 10:44:33;;;;;;;3.75;3.45;;;12.30;99.90;;;;;;5055188;28;20237;-67
2023/10/24 10:47:00;;;;;;;3.88;3.55;;;12.30;99.90;;;;;;5055279;28;20679;-67
2023/10/24 10:49:36;;;;;;;3.97;3.20;;;12.40;99.90;;;;;;5055301;28;20172;-67
2023/10/24 10:52:04;;;;;;;5.45;3.63;;;12.40;99.90;;;;;;5055205;28;20175;-68
2023/10/24 10:55:32;;;;;;;4.15;3.60;;;12.30;99.90;;;;;;5055343;28;20207;-67
2023/10/24 10:58:29;;;;;;;3.72;3.22;;;12.30;99.90;;;;;;5006468;28;20194;-67
2023/10/24 11:01:13;;;;;;;3.22;2.92;;;12.40;99.90;;;;;;5055056;28;20172;-65
2023/10/24 11:03:43;;;;;;;4.65;3.00;;;12.50;99.90;;;;;;5055108;28;20182;-67
2023/10/24 11:06:16;;;;;;;3.70;3.35;;;12.40;99.90;;;;;;5055014;28;20171;-67
2023/10/24 11:09:06;;;;;;;3.42;3.05;;;12.50;99.90;;;;;;5054800;28;20187;-64
2023/10/24 11:11:32;;;;;;;3.60;2.83;;;12.50;99.90;;;;;;5055051;28;20182;-67
2023/10/24 11:14:20;;;;;;;4.05;2.72;;;12.60;99.90;;;;;;5054846;28;20203;-67
2023/10/24 11:16:48;;;;;;;3.33;2.78;;;12.70;99.90;;;;;;5054660;28;20172;-67
2023/10/24 11:19:18;;;;;;;3.95;2.70;;;12.60;99.90;;;;;;5054594;28;20258;-67
2023/10/24 11:21:46;;;;;;;2.72;2.47;;;12.60;99.90;;;;;;5054822;28;20226;-67
2023/10/24 11:24:20;;;;;;;4.32;2.42;;;12.60;99.90;;;;;;5054725;28;20175;-67
2023/10/24 11:26:46;;;;;;;3.65;2.75;;;12.70;99.90;;;;;;5054623;28;20186;-67
2023/10/24 11:29:15;;;;;;;4.35;3.55;;;12.80;99.90;;;;;;5054635;28;20193;-67
2023/10/24 11:31:44;;;;;;;3.75;3.45;;;12.90;99.90;;;;;;5054354;28;20183;-67
2023/10/24 11:34:18;;;;;;;6.20;4.40;;;13.10;99.90;;;;;;5054394;28;20214;-67
2023/10/24 11:36:44;;;;;;;6.00;4.85;;;13.30;99.90;;;;;;5054390;28;20648;-66
2023/10/24 11:39:16;;;;;;;6.97;5.22;;;13.60;99.90;;;;;;5054378;28;20167;-67
2023/10/24 11:41:43;;;;;;;7.25;5.50;;;13.70;99.90;;;;;;5054265;28;20649;-64
2023/10/24 11:44:11;;;;;;;7.88;5.72;;;13.90;99.90;;;;;;5054183;28;20187;-67
2023/10/24 11:46:41;;;;;;;6.97;6.05;;;14.00;99.90;;;;;;5054318;28;20179;-67
2023/10/24 11:49:07;;;;;;;6.25;5.65;;;14.10;99.90;;;;;;5054054;28;20200;-66
2023/10/24 11:51:33;;;;;;;6.85;5.90;;;14.10;99.90;;;;;;5054177;28;20261;-66
2023/10/24 11:54:03;;;;;;;6.22;5.63;;;14.10;99.90;;;;;;5053798;28;20738;-66
2023/10/24 11:56:30;;;;;;;7.05;4.53;;;14.10;99.90;;;;;;5053997;28;20254;-66
2023/10/24 11:58:57;;;;;;;5.25;4.75;;;14.10;99.90;;;;;;5053884;28;20262;-66
2023/10/24 12:01:24;;;;;;;4.80;4.40;;;14.10;99.90;;;;;;5054060;28;20171;-67
2023/10/24 12:03:56;;;;;;;5.45;4.45;;;14.20;99.90;;;;;;5053871;28;20178;-66
2023/10/24 12:06:22;;;;;;;4.65;4.00;;;14.20;99.90;;;;;;5053933;28;20211;-66
2023/10/24 12:08:49;;;;;;;6.65;3.72;;;14.30;99.90;;;;;;5053752;28;20168;-66
2023/10/24 12:11:15;;;;;;;4.57;3.78;;;14.30;99.90;;;;;;5053607;28;20181;-67
2023/10/24 12:13:41;;;;;;;4.82;3.72;;;14.30;99.90;;;;;;5053784;28;20202;-66
2023/10/24 12:16:07;;;;;;;4.20;3.80;;;14.40;99.90;;;;;;5053758;28;20221;-66
2023/10/24 12:18:33;;;;;;;3.65;3.17;;;14.40;99.90;;;;;;5053656;28;20210;-66
2023/10/24 12:20:59;;;;;;;4.05;3.20;;;14.30;99.90;;;;;;5053468;28;20254;-66
2023/10/24 12:23:26;;;;;;;5.00;3.20;;;14.40;99.90;;;;;;5053584;28;20179;-66
2023/10/24 12:25:52;;;;;;;5.53;3.40;;;14.40;99.90;;;;;;5053441;28;20600;-66
2023/10/24 12:28:18;;;;;;;4.93;3.47;;;14.30;99.90;;;;;;5053692;28;20620;-66
2023/10/24 12:30:44;;;;;;;5.75;3.20;;;14.20;99.90;;;;;;5053614;28;20172;-66
2023/10/24 12:33:09;;;;;;;4.63;3.42;;;14.20;99.90;;;;;;5053213;28;20206;-66
2023/10/24 12:35:35;;;;;;;6.93;3.80;;;14.30;99.90;;;;;;5053313;28;20258;-66
2023/10/24 12:38:01;;;;;;;3.70;3.17;;;14.30;99.90;;;;;;5053373;28;20262;-67
2023/10/24 12:40:26;;;;;;;4.95;3.33;;;14.40;99.90;;;;;;5053277;28;20202;-66
2023/10/24 12:42:52;;;;;;;5.03;3.47;;;14.40;99.90;;;;;;5053239;28;20182;-66
2023/10/24 12:45:21;;;;;;;5.22;3.75;;;14.50;99.90;;;;;;5052293;28;20171;-66